Orlando Sanford International Airport
KSFB : now visible

Airfield :











YOU CAN JOIN US ON...

 
LOGIN :

Register | Disclaimer

   EN    FR    IT 

 









Legend :    VFR   Marginal VFR   IFR   Intensive IFR   Very Intensive IFR
Visi :
Ceiling :
>= 8 km
>= 3000ft
5 to 8 km
1000 to 3000 ft
1500m to 5 km
500 to 1000 ft
800 to 1500m
200 to 500 ft
< 800m
< 200 ft
Symbols :   Thunderstorms  Fog  Heavy snow  Heavy precipitations  Wind > 20 kt






- Airport Elevation : 55 ft
- IATA code : SFB


KSFB - Orlando Sanford International

CURRENT METAR :
  • 240353Z 05005KT 10SM SCT055 BKN090 16/14 A3007 RMK AO2 SLP181 T01560139

EXPIRED METARs :
  • 240253Z 00000KT 10SM BKN065 16/14 A3008 RMK AO2 SLP184 T01610144 53003
  • 240153Z 00000KT 10SM FEW050 OVC060 17/15 A3007 RMK AO2 SLP182 T01670150

TAF KSFB
Valid from the 24 at 00:00 until the 25 at 00:00 UTC


232323Z 2400/2424 VRB05KT P6SM SCT035 BKN090
TEMPO 2410/2412 5SM BR BKN020
FM241400 17006KT P6SM SCT050 SCT120 BKN250
FM241800 21008KT P6SM SCT040 BKN250



MET'MAP, your aeronautical weather chart ! - Copyright ORBIFLY December 2007 - Disclaimer

ORBIFLY MET'MAP TEAM :

Programming & Development : Alexandra Zaïnal
Concept & original design : Baudouin d'Aumeries
Assistance for programming : Marc-Olivier Méhu
Technical & hardware support : Manuel Goepfert

Contact : metmap@orbifly.com




SOURCES & CREDITS :

   NOAA       Earth
Advisory